createdAt,value
2023-09-26T00:00:27.803Z,54.50
2023-09-26T00:02:55.536Z,54.60
2023-09-26T00:05:25.244Z,54.70
2023-09-26T00:07:52.868Z,54.70
2023-09-26T00:10:21.579Z,54.70
2023-09-26T00:12:49.951Z,54.70
2023-09-26T00:15:17.171Z,54.80
2023-09-26T00:17:44.846Z,54.80
2023-09-26T00:20:16.954Z,54.90
2023-09-26T00:22:44.413Z,55.50
2023-09-26T00:25:14.339Z,55.00
2023-09-26T00:27:41.203Z,55.00
2023-09-26T00:30:11.783Z,55.60
2023-09-26T00:32:39.932Z,55.10
2023-09-26T00:35:10.205Z,55.20
2023-09-26T00:37:37.324Z,55.10
2023-09-26T00:40:05.238Z,55.20
2023-09-26T00:42:32.178Z,55.30
2023-09-26T00:44:59.031Z,55.30
2023-09-26T00:47:26.050Z,55.30
2023-09-26T00:49:53.025Z,55.30
2023-09-26T00:52:20.400Z,55.50
2023-09-26T00:54:47.503Z,55.80
2023-09-26T00:57:14.561Z,55.40
2023-09-26T00:59:41.600Z,55.40
2023-09-26T01:02:09.433Z,55.40
2023-09-26T01:04:37.281Z,55.50
2023-09-26T01:07:04.220Z,55.50
2023-09-26T01:09:31.176Z,55.60
2023-09-26T01:11:58.594Z,55.70
2023-09-26T01:14:25.977Z,55.80
2023-09-26T01:16:57.099Z,55.70
2023-09-26T01:19:24.205Z,55.90
2023-09-26T01:21:51.203Z,55.70
2023-09-26T01:24:18.728Z,55.80
2023-09-26T01:26:46.142Z,55.70
2023-09-26T01:29:13.554Z,55.70
2023-09-26T01:31:40.937Z,55.60
2023-09-26T01:34:09.277Z,55.70
2023-09-26T01:36:36.607Z,55.80
2023-09-26T01:39:03.940Z,55.80
2023-09-26T01:41:31.759Z,55.90
2023-09-26T01:43:59.261Z,56.00
2023-09-26T01:46:27.229Z,56.10
2023-09-26T01:48:54.589Z,56.10
2023-09-26T01:51:22.213Z,56.20
2023-09-26T01:53:49.815Z,56.20
2023-09-26T01:56:17.057Z,56.30
2023-09-26T01:58:44.152Z,56.10
2023-09-26T02:01:11.395Z,56.30
2023-09-26T02:03:38.594Z,56.30
2023-09-26T02:06:06.142Z,56.40
2023-09-26T02:08:33.589Z,56.40
2023-09-26T02:11:00.926Z,56.70
2023-09-26T02:13:28.053Z,56.20
2023-09-26T02:15:56.009Z,56.40
2023-09-26T02:18:23.422Z,56.30
2023-09-26T02:20:50.737Z,56.40
2023-09-26T02:23:17.853Z,56.50
2023-09-26T02:25:54.017Z,56.50
2023-09-26T02:28:21.753Z,56.90
2023-09-26T02:30:49.365Z,56.50
2023-09-26T02:33:17.005Z,57.20
2023-09-26T02:35:44.076Z,56.70
2023-09-26T02:38:11.309Z,56.40
2023-09-26T02:40:38.433Z,56.40
2023-09-26T02:43:05.590Z,56.50
2023-09-26T02:45:32.667Z,56.60
2023-09-26T02:48:01.191Z,56.60
2023-09-26T02:50:28.547Z,56.70
2023-09-26T02:52:55.935Z,56.70
2023-09-26T02:55:23.483Z,56.70
2023-09-26T02:57:50.999Z,56.90
2023-09-26T03:00:19.525Z,57.00
2023-09-26T03:02:48.247Z,56.90
2023-09-26T03:05:17.134Z,57.10
2023-09-26T03:07:44.563Z,57.00
2023-09-26T03:10:12.672Z,57.10
2023-09-26T03:12:48.381Z,57.10
2023-09-26T03:15:16.235Z,57.30
2023-09-26T03:17:43.423Z,57.20
2023-09-26T03:20:12.054Z,57.30
2023-09-26T03:22:39.441Z,57.10
2023-09-26T03:25:07.460Z,57.20
2023-09-26T03:27:34.855Z,57.20
2023-09-26T03:30:02.415Z,57.30
2023-09-26T03:32:29.838Z,57.30
2023-09-26T03:34:57.141Z,57.40
2023-09-26T03:37:24.817Z,57.10
2023-09-26T03:39:52.286Z,57.20
2023-09-26T03:42:19.713Z,57.20
2023-09-26T03:44:46.986Z,57.10
2023-09-26T03:47:15.402Z,57.20
2023-09-26T03:49:43.025Z,57.30
2023-09-26T03:52:10.560Z,57.40
2023-09-26T03:54:38.502Z,57.50
2023-09-26T03:57:05.982Z,57.60
2023-09-26T03:59:34.423Z,57.60
2023-09-26T04:02:02.322Z,57.60
2023-09-26T04:04:32.913Z,57.70
2023-09-26T04:07:00.404Z,57.70
2023-09-26T04:09:27.660Z,57.80
2023-09-26T04:11:55.281Z,57.80
2023-09-26T04:14:22.510Z,57.80
2023-09-26T04:16:49.724Z,57.70
2023-09-26T04:19:17.031Z,57.60
2023-09-26T04:21:44.309Z,57.70
2023-09-26T04:24:11.875Z,57.80
2023-09-26T04:26:38.909Z,57.80
2023-09-26T04:29:06.648Z,57.80
2023-09-26T04:31:33.888Z,57.60
2023-09-26T04:34:01.223Z,57.90
2023-09-26T04:36:30.985Z,58.00
2023-09-26T04:38:58.656Z,58.10
2023-09-26T04:41:25.736Z,58.10
2023-09-26T04:43:53.039Z,58.30
2023-09-26T04:46:20.504Z,58.00
2023-09-26T04:48:48.007Z,58.10
2023-09-26T04:51:16.619Z,58.00
2023-09-26T04:53:44.169Z,58.20
2023-09-26T04:56:11.546Z,58.30
2023-09-26T04:58:39.498Z,58.20
2023-09-26T05:01:17.233Z,58.20
2023-09-26T05:03:45.851Z,58.60
2023-09-26T05:06:14.708Z,58.40
2023-09-26T05:08:42.437Z,58.40
2023-09-26T05:11:16.551Z,58.50
2023-09-26T05:13:45.268Z,58.80
2023-09-26T05:16:14.942Z,58.70
2023-09-26T05:18:42.818Z,58.80
2023-09-26T05:21:11.238Z,58.80
2023-09-26T05:23:38.800Z,58.90
2023-09-26T05:26:09.072Z,59.00
2023-09-26T05:28:36.633Z,59.00
2023-09-26T05:31:04.167Z,59.00
2023-09-26T05:33:31.861Z,59.00
2023-09-26T05:35:59.155Z,58.70
2023-09-26T05:38:29.807Z,58.90
2023-09-26T05:40:57.045Z,58.60
2023-09-26T05:43:24.585Z,58.70
2023-09-26T05:45:55.157Z,58.70
2023-09-26T05:48:22.948Z,58.80
2023-09-26T05:50:50.217Z,58.90
2023-09-26T05:53:19.157Z,58.90
2023-09-26T05:55:46.666Z,58.60
2023-09-26T05:58:14.002Z,58.70
2023-09-26T06:00:41.683Z,58.80
2023-09-26T06:03:09.076Z,58.80
2023-09-26T06:05:39.861Z,58.90
2023-09-26T06:08:07.801Z,59.00
2023-09-26T06:10:35.529Z,58.80
2023-09-26T06:13:03.491Z,59.00
2023-09-26T06:15:32.624Z,59.20
2023-09-26T06:18:03.745Z,59.20
2023-09-26T06:20:32.130Z,59.40
2023-09-26T06:22:59.345Z,59.50
2023-09-26T06:25:29.477Z,59.50
2023-09-26T06:27:59.660Z,59.60
2023-09-26T06:30:27.262Z,59.70
2023-09-26T06:32:55.209Z,59.80
2023-09-26T06:35:22.459Z,59.80
2023-09-26T06:37:49.796Z,59.90
2023-09-26T06:40:17.317Z,59.90
2023-09-26T06:42:44.560Z,59.90
2023-09-26T06:45:12.453Z,60.00
2023-09-26T06:47:40.021Z,59.70
2023-09-26T06:50:12.077Z,59.90
2023-09-26T06:52:39.997Z,60.10
2023-09-26T06:55:11.837Z,59.80
2023-09-26T06:57:40.423Z,60.40
2023-09-26T07:14:05.255Z,60.80
2023-09-26T07:33:55.466Z,61.70
2023-09-26T07:51:51.441Z,61.70
2023-09-26T07:58:16.989Z,61.40
2023-09-26T08:01:18.304Z,60.90
2023-09-26T08:04:00.157Z,60.80
2023-09-26T08:07:02.080Z,60.30
2023-09-26T08:10:06.890Z,60.60
2023-09-26T08:13:22.642Z,60.50
2023-09-26T08:20:50.760Z,60.30
2023-09-26T08:24:33.868Z,59.90
2023-09-26T08:27:25.169Z,59.60
2023-09-26T08:30:34.473Z,59.60
2023-09-26T08:37:33.273Z,59.80
2023-09-26T08:40:18.014Z,59.40
2023-09-26T08:43:14.963Z,59.50
2023-09-26T08:46:36.100Z,59.50
2023-09-26T08:53:32.107Z,59.20
2023-09-26T08:57:18.531Z,59.60
2023-09-26T09:00:37.715Z,59.20
2023-09-26T09:07:14.306Z,59.00
2023-09-26T09:10:45.920Z,58.90
2023-09-26T09:13:43.276Z,59.10
2023-09-26T09:17:10.226Z,58.90
2023-09-26T09:20:04.557Z,58.70
2023-09-26T09:32:58.141Z,58.50
2023-09-26T09:39:26.859Z,58.40
2023-09-26T09:42:24.389Z,58.40
2023-09-26T09:45:38.812Z,58.10
2023-09-26T09:49:01.413Z,57.90
2023-09-26T09:52:34.420Z,57.70
2023-09-26T10:02:29.358Z,57.20
2023-09-26T10:05:30.408Z,57.40
2023-09-26T10:21:07.314Z,56.90
2023-09-26T10:38:42.780Z,56.60
2023-09-26T10:41:21.996Z,56.40
2023-09-26T10:44:49.369Z,56.40
2023-09-26T10:48:17.432Z,56.30
2023-09-26T10:51:46.695Z,56.10
2023-09-26T11:02:50.885Z,56.00
2023-09-26T11:11:02.278Z,56.10
2023-09-26T11:13:48.828Z,55.60
2023-09-26T11:17:06.129Z,55.70
2023-09-26T11:20:00.849Z,55.50
2023-09-26T11:23:01.496Z,55.20
2023-09-26T11:30:11.749Z,55.10
2023-09-26T11:41:50.959Z,54.60
2023-09-26T12:00:27.255Z,53.90
2023-09-26T12:03:29.398Z,53.70
2023-09-26T12:06:32.982Z,53.70
2023-09-26T12:13:00.027Z,53.80
2023-09-26T12:26:30.692Z,53.30
2023-09-26T12:37:10.199Z,52.60
2023-09-26T12:52:12.240Z,51.80
2023-09-26T13:16:33.051Z,51.10
2023-09-26T13:23:16.340Z,49.90
2023-09-26T13:26:04.718Z,49.80
2023-09-26T13:41:03.380Z,49.40
2023-09-26T13:47:40.413Z,49.50
2023-09-26T13:50:55.414Z,48.40
2023-09-26T14:07:28.863Z,48.00
2023-09-26T14:10:10.688Z,47.60
2023-09-26T14:13:10.609Z,47.80
2023-09-26T14:16:44.024Z,47.60
2023-09-26T14:20:05.643Z,47.10
2023-09-26T14:23:01.564Z,47.00
2023-09-26T14:26:52.841Z,46.70
2023-09-26T14:33:45.545Z,46.80
2023-09-26T14:51:45.910Z,46.00
2023-09-26T14:54:47.745Z,45.60
2023-09-26T15:04:26.323Z,46.00
2023-09-26T15:07:27.788Z,45.10
2023-09-26T15:14:21.457Z,44.90
2023-09-26T15:24:48.097Z,44.80
2023-09-26T15:44:25.419Z,43.70
2023-09-26T15:55:18.510Z,43.40
2023-09-26T15:58:40.180Z,44.30
2023-09-26T16:05:35.445Z,42.80
2023-09-26T16:08:35.188Z,43.20
2023-09-26T16:20:47.616Z,42.80
2023-09-26T16:23:35.104Z,42.90
2023-09-26T16:27:39.554Z,43.30
2023-09-26T16:29:13.109Z,43.50
2023-09-26T16:32:25.552Z,43.60
2023-09-26T16:36:10.136Z,43.10
2023-09-26T16:42:03.688Z,43.90
2023-09-26T16:45:27.479Z,44.10
2023-09-26T16:48:15.186Z,44.00
2023-09-26T16:51:00.922Z,44.30
2023-09-26T16:53:49.693Z,44.20
2023-09-26T16:56:44.401Z,44.40
2023-09-26T16:59:19.740Z,44.50
2023-09-26T17:02:16.556Z,44.60
2023-09-26T17:11:28.409Z,44.80
2023-09-26T17:14:13.852Z,44.90
2023-09-26T17:17:17.857Z,45.00
2023-09-26T17:20:16.599Z,45.20
2023-09-26T17:23:17.404Z,45.10
2023-09-26T17:26:02.363Z,45.40
2023-09-26T17:29:01.353Z,45.40
2023-09-26T17:31:49.075Z,45.40
2023-09-26T17:34:38.492Z,45.60
2023-09-26T17:37:34.627Z,45.60
2023-09-26T17:40:39.994Z,45.90
2023-09-26T17:43:54.748Z,45.90
2023-09-26T17:53:17.945Z,46.30
2023-09-26T17:56:25.055Z,46.50
2023-09-26T17:59:30.588Z,46.50
2023-09-26T18:05:09.345Z,46.60
2023-09-26T18:08:08.339Z,46.90
2023-09-26T18:10:36.720Z,47.00
2023-09-26T18:13:04.079Z,46.90
2023-09-26T18:15:32.707Z,47.10
2023-09-26T18:18:01.598Z,47.10
2023-09-26T18:20:31.141Z,47.20
2023-09-26T18:22:58.835Z,47.40
2023-09-26T18:25:26.194Z,47.50
2023-09-26T18:32:36.274Z,47.90
2023-09-26T18:35:59.656Z,48.00
2023-09-26T18:36:57.697Z,47.50
2023-09-26T18:39:56.399Z,48.00
2023-09-26T18:42:40.904Z,47.90
2023-09-26T18:45:45.295Z,48.10
2023-09-26T18:48:44.680Z,48.10
2023-09-26T18:51:58.417Z,48.40
2023-09-26T18:54:50.947Z,48.20
2023-09-26T18:58:16.989Z,48.40
2023-09-26T19:01:23.084Z,48.60
2023-09-26T19:04:26.345Z,48.80
2023-09-26T19:17:20.305Z,48.90
2023-09-26T19:20:26.249Z,49.00
2023-09-26T19:23:28.357Z,49.50
2023-09-26T19:26:34.791Z,49.80
2023-09-26T19:29:47.356Z,49.80
2023-09-26T19:32:39.589Z,49.50
2023-09-26T19:35:24.639Z,49.70
2023-09-26T19:42:00.231Z,50.20
2023-09-26T19:48:53.738Z,50.30
2023-09-26T19:52:19.049Z,50.90
2023-09-26T19:55:08.927Z,50.10
2023-09-26T19:58:35.082Z,50.50
2023-09-26T20:01:25.703Z,50.50
2023-09-26T20:04:22.452Z,50.10
2023-09-26T20:07:28.844Z,50.60
2023-09-26T20:10:14.013Z,50.70
2023-09-26T20:16:00.235Z,50.60
2023-09-26T20:22:11.477Z,51.10
2023-09-26T20:25:06.145Z,51.00
2023-09-26T20:28:07.970Z,50.90
2023-09-26T20:33:46.790Z,51.30
2023-09-26T20:36:49.831Z,51.20
2023-09-26T20:39:38.908Z,51.70
2023-09-26T20:42:48.519Z,51.50
2023-09-26T20:45:33.728Z,51.30
2023-09-26T20:48:43.120Z,51.50
2023-09-26T20:51:53.945Z,51.80
2023-09-26T21:01:35.295Z,52.10
2023-09-26T21:04:44.646Z,51.60
2023-09-26T21:07:30.582Z,52.10
2023-09-26T21:10:23.962Z,51.90
2023-09-26T21:19:40.550Z,52.00
2023-09-26T21:22:43.177Z,52.40
2023-09-26T21:29:15.053Z,52.70
2023-09-26T21:32:01.488Z,52.40
2023-09-26T21:36:09.917Z,52.50
2023-09-26T21:42:23.462Z,52.70
2023-09-26T21:48:16.702Z,53.00
2023-09-26T21:57:32.231Z,53.20
2023-09-26T22:02:59.899Z,53.30
2023-09-26T22:05:27.151Z,53.30
2023-09-26T22:07:56.967Z,53.50
2023-09-26T22:10:25.293Z,53.60
2023-09-26T22:12:52.269Z,53.60
2023-09-26T22:15:20.178Z,53.70
2023-09-26T22:17:48.040Z,53.80
2023-09-26T22:20:18.050Z,54.00
2023-09-26T22:22:45.840Z,54.00
2023-09-26T22:25:15.184Z,53.90
2023-09-26T22:27:43.538Z,54.10
2023-09-26T22:30:11.592Z,54.10
2023-09-26T22:32:40.348Z,54.10
2023-09-26T22:35:08.503Z,54.10
2023-09-26T22:37:36.666Z,54.60
2023-09-26T22:40:08.389Z,54.20
2023-09-26T22:42:35.666Z,54.50
2023-09-26T22:45:04.780Z,54.20
2023-09-26T22:47:33.375Z,54.20
2023-09-26T22:50:05.291Z,54.30
2023-09-26T22:52:37.074Z,54.40
2023-09-26T22:55:04.823Z,54.60
2023-09-26T22:57:32.292Z,54.50
2023-09-26T22:59:59.463Z,54.50
2023-09-26T23:02:26.809Z,54.50
2023-09-26T23:04:54.243Z,54.60
2023-09-26T23:07:21.799Z,54.60
2023-09-26T23:09:48.804Z,54.60
2023-09-26T23:12:16.677Z,54.60
2023-09-26T23:14:44.046Z,54.40
2023-09-26T23:17:12.328Z,54.50
2023-09-26T23:19:39.536Z,54.80
2023-09-26T23:22:07.410Z,54.90
2023-09-26T23:24:34.831Z,55.20
2023-09-26T23:27:02.193Z,55.00
2023-09-26T23:29:29.341Z,55.30
2023-09-26T23:31:56.745Z,55.10
2023-09-26T23:35:12.634Z,55.10
2023-09-26T23:38:28.151Z,55.30
2023-09-26T23:41:46.530Z,56.00
2023-09-26T23:44:15.776Z,55.40
2023-09-26T23:46:43.307Z,55.10
2023-09-26T23:49:10.269Z,55.30
2023-09-26T23:51:37.120Z,55.40
2023-09-26T23:54:04.862Z,55.50
2023-09-26T23:56:31.854Z,55.60
2023-09-26T23:58:58.805Z,55.70
